Time;durP1;ratioP1;P1;durP2;ratioP2;P2;SDS_P1;SDS_P2;PMS_P1;PMS_P2;Temp;Humidity;BMP_temperature;BMP_pressure;BME280_temperature;BME280_humidity;BME280_pressure;Samples;Min_cycle;Max_cycle;Signal;HPM_P1;HPM_P2
2023/07/26 00:00:06;;;;;;;4.40;1.40;;;;;;;11.76;76.38;98426.67;106493;1277;99812;-57
2023/07/26 00:02:55;;;;;;;3.60;1.40;;;;;;;11.76;76.43;98426.69;106473;1274;22541;-58
2023/07/26 00:05:24;;;;;;;2.90;1.30;;;;;;;11.77;76.47;98426.40;106520;1279;99180;-56
2023/07/26 00:07:53;;;;;;;4.80;1.10;;;;;;;11.78;76.45;98428.96;106483;1275;24274;-58
2023/07/26 00:10:22;;;;;;;3.70;1.40;;;;;;;11.78;76.67;98429.54;106439;1274;99345;-58
2023/07/26 00:12:51;;;;;;;4.50;1.30;;;;;;;11.77;76.67;98430.06;106486;1274;22769;-57
2023/07/26 00:15:20;;;;;;;4.20;1.20;;;;;;;11.80;76.76;98430.73;106614;1279;25353;-57
2023/07/26 00:17:49;;;;;;;3.30;1.40;;;;;;;11.83;77.02;98430.90;106698;1277;100947;-56
2023/07/26 00:20:18;;;;;;;4.50;1.40;;;;;;;11.84;77.06;98426.63;106483;1277;24377;-59
2023/07/26 00:22:47;;;;;;;2.90;1.40;;;;;;;11.85;77.06;98430.24;109145;1274;99084;-57
2023/07/26 00:25:16;;;;;;;3.50;1.20;;;;;;;11.87;77.13;98427.53;106521;1278;22914;-58
2023/07/26 00:27:45;;;;;;;3.80;1.00;;;;;;;11.87;77.39;98425.10;106584;1274;25370;-57
2023/07/26 00:30:15;;;;;;;2.50;1.00;;;;;;;11.87;77.68;98422.42;106349;1273;98953;-56
2023/07/26 00:32:44;;;;;;;3.80;1.40;;;;;;;11.92;77.54;98428.34;106548;1277;22763;-57
2023/07/26 00:35:21;;;;;;;4.70;1.20;;;;;;;11.94;77.64;98430.81;110152;1274;99506;-58
2023/07/26 00:37:50;;;;;;;2.00;1.00;;;;;;;11.97;77.88;98425.21;110253;1272;22288;-57
2023/07/26 00:40:19;;;;;;;1.60;1.10;;;;;;;12.00;77.97;98426.02;106672;1274;99356;-56
2023/07/26 00:42:48;;;;;;;5.00;1.30;;;;;;;12.04;77.81;98430.29;106810;1274;25402;-56
2023/07/26 00:45:17;;;;;;;4.90;1.40;;;;;;;12.07;77.88;98427.64;106448;1273;22555;-57
2023/07/26 00:47:47;;;;;;;3.40;1.40;;;;;;;12.10;77.94;98431.54;106781;1277;99241;-57
2023/07/26 00:50:16;;;;;;;3.50;1.30;;;;;;;12.15;78.03;98430.86;106801;1273;24230;-59
2023/07/26 00:52:46;;;;;;;2.30;1.00;;;;;;;12.17;77.97;98431.02;106564;1272;99641;-57
2023/07/26 00:55:15;;;;;;;4.70;1.20;;;;;;;12.19;78.01;98433.02;106474;1273;22526;-57
2023/07/26 00:57:46;;;;;;;1.80;1.00;;;;;;;12.20;78.07;98431.52;106631;1265;24215;-56
2023/07/26 01:00:18;;;;;;;3.90;1.50;;;;;;;12.21;78.10;98429.36;106559;1276;98959;-59
2023/07/26 01:02:47;;;;;;;1.80;1.00;;;;;;;12.23;78.20;98430.77;106576;1273;22539;-57
2023/07/26 01:05:17;;;;;;;4.10;1.20;;;;;;;12.24;78.25;98430.18;106497;1273;99973;-60
2023/07/26 01:08:09;;;;;;;2.40;1.00;;;;;;;12.24;78.38;98429.66;106606;1274;22639;-57
2023/07/26 01:10:49;;;;;;;1.30;0.90;;;;;;;12.14;78.55;98426.73;106434;1272;99321;-58
2023/07/26 01:13:29;;;;;;;1.60;0.90;;;;;;;12.23;78.58;98429.38;106601;1273;24854;-57
2023/07/26 01:15:59;;;;;;;4.00;1.40;;;;;;;12.23;78.53;98430.59;106495;1273;102291;-60
2023/07/26 01:18:28;;;;;;;2.80;1.10;;;;;;;12.22;78.65;98434.84;106525;1272;23773;-58
2023/07/26 01:20:57;;;;;;;2.90;1.00;;;;;;;12.20;78.64;98437.62;106515;1267;24058;-61
2023/07/26 01:23:26;;;;;;;2.50;1.20;;;;;;;12.19;78.61;98437.19;106404;1272;99074;-58
2023/07/26 01:25:55;;;;;;;5.30;2.50;;;;;;;12.19;78.84;98434.57;106467;1273;22527;-59
2023/07/26 01:28:24;;;;;;;2.50;1.00;;;;;;;12.17;78.88;98432.98;106407;1273;99746;-57
2023/07/26 01:30:55;;;;;;;1.70;0.90;;;;;;;12.12;79.15;98432.82;106393;1276;22537;-59
2023/07/26 01:33:25;;;;;;;3.30;1.20;;;;;;;12.08;79.24;98437.11;106514;1274;25268;-57
2023/07/26 01:35:54;;;;;;;3.00;1.00;;;;;;;12.05;79.31;98437.35;106493;1277;99131;-58
2023/07/26 01:38:25;;;;;;;3.70;1.00;;;;;;;12.03;79.36;98434.53;106403;1274;22682;-58
2023/07/26 01:40:55;;;;;;;4.70;1.20;;;;;;;12.02;79.38;98432.70;106398;1274;99184;-57
2023/07/26 01:43:24;;;;;;;3.60;1.30;;;;;;;12.01;79.50;98435.88;106518;1275;24382;-56
2023/07/26 01:45:53;;;;;;;2.20;1.00;;;;;;;12.00;79.54;98435.14;106538;1274;22528;-58
2023/07/26 01:48:22;;;;;;;1.60;1.00;;;;;;;11.97;79.68;98432.33;106453;1271;22526;-58
2023/07/26 01:50:52;;;;;;;3.40;1.20;;;;;;;11.96;79.82;98431.89;106473;1273;24064;-57
2023/07/26 01:53:21;;;;;;;2.70;1.10;;;;;;;11.95;79.88;98432.85;106462;1274;99083;-59
2023/07/26 01:55:50;;;;;;;2.10;1.10;;;;;;;11.95;79.95;98437.59;106507;1273;22536;-57
2023/07/26 01:58:19;;;;;;;1.50;1.20;;;;;;;11.95;80.13;98439.63;106405;1273;99490;-58
2023/07/26 02:00:48;;;;;;;2.30;1.20;;;;;;;11.94;80.10;98434.15;106695;1273;25250;-57
2023/07/26 02:03:17;;;;;;;2.10;1.10;;;;;;;11.93;80.15;98431.11;106585;1273;22660;-57
2023/07/26 02:05:47;;;;;;;4.30;1.80;;;;;;;11.92;80.21;98430.14;106615;1267;99128;-56
2023/07/26 02:08:17;;;;;;;3.40;1.20;;;;;;;11.91;80.31;98427.79;106572;1273;22580;-57
2023/07/26 02:10:46;;;;;;;5.10;1.20;;;;;;;11.88;80.39;98425.88;106464;1273;99162;-57
2023/07/26 02:13:15;;;;;;;6.40;1.90;;;;;;;11.87;80.44;98430.14;106453;1274;25613;-57
2023/07/26 02:15:46;;;;;;;2.80;1.30;;;;;;;11.82;80.46;98430.58;106505;1274;25508;-57
2023/07/26 02:18:15;;;;;;;1.60;1.20;;;;;;;11.79;80.52;98430.49;106442;1274;98960;-58
2023/07/26 02:20:44;;;;;;;2.20;1.30;;;;;;;11.75;80.49;98423.64;106581;1273;22769;-58
2023/07/26 02:23:13;;;;;;;1.80;1.20;;;;;;;11.74;80.74;98422.52;106381;1273;99098;-60
2023/07/26 02:25:42;;;;;;;6.50;1.40;;;;;;;11.73;81.02;98428.14;106486;1273;25410;-57
2023/07/26 02:28:11;;;;;;;3.80;1.60;;;;;;;11.75;81.38;98426.95;106373;1261;99445;-58
2023/07/26 02:30:40;;;;;;;3.20;1.20;;;;;;;11.75;81.26;98429.91;106613;1273;25285;-58
2023/07/26 02:33:09;;;;;;;1.70;1.00;;;;;;;11.71;81.07;98426.39;106577;1273;24281;-59
2023/07/26 02:35:38;;;;;;;3.50;1.10;;;;;;;11.70;81.34;98427.83;106346;1273;99118;-57
2023/07/26 02:38:09;;;;;;;3.40;1.40;;;;;;;11.69;81.64;98425.30;106490;1274;22594;-58
2023/07/26 02:40:38;;;;;;;2.20;1.10;;;;;;;11.67;81.51;98429.11;106445;1273;99710;-60
2023/07/26 02:43:07;;;;;;;7.00;1.40;;;;;;;11.64;81.52;98431.59;106669;1257;24076;-58
2023/07/26 02:45:36;;;;;;;2.00;1.10;;;;;;;11.61;81.48;98434.40;106526;1272;24237;-60
2023/07/26 02:48:05;;;;;;;4.10;1.60;;;;;;;11.59;81.78;98439.25;106602;1274;99217;-58
2023/07/26 02:50:34;;;;;;;2.20;1.00;;;;;;;11.60;81.99;98442.48;106612;1273;23015;-57
2023/07/26 02:53:03;;;;;;;4.20;1.30;;;;;;;11.63;82.41;98446.48;106456;1272;99144;-59
2023/07/26 02:55:32;;;;;;;4.20;1.20;;;;;;;11.65;82.22;98447.38;106500;1274;22533;-56
2023/07/26 02:58:01;;;;;;;2.20;1.30;;;;;;;11.65;82.29;98444.55;106428;1273;99434;-57
2023/07/26 03:00:30;;;;;;;6.70;1.60;;;;;;;11.66;82.29;98444.51;106503;1274;23906;-59
2023/07/26 03:02:59;;;;;;;5.80;1.20;;;;;;;11.68;82.27;98450.11;106457;1273;23124;-58
2023/07/26 03:05:30;;;;;;;3.20;1.30;;;;;;;11.70;82.35;98450.31;106546;1272;99048;-58
2023/07/26 03:07:59;;;;;;;5.20;1.40;;;;;;;11.72;82.36;98452.12;106517;1273;22653;-57
2023/07/26 03:10:28;;;;;;;2.70;1.20;;;;;;;11.74;82.49;98454.05;106376;1274;99323;-57
2023/07/26 03:12:57;;;;;;;1.50;1.10;;;;;;;11.75;82.67;98458.50;106496;1273;23016;-60
2023/07/26 03:15:26;;;;;;;3.40;1.20;;;;;;;11.75;82.58;98460.38;106598;1279;22611;-57
2023/07/26 03:17:55;;;;;;;4.70;1.20;;;;;;;11.77;82.64;98465.84;106603;1273;99247;-58
2023/07/26 03:20:24;;;;;;;19.30;2.20;;;;;;;11.77;82.75;98459.35;106480;1273;22523;-57
2023/07/26 03:22:53;;;;;;;9.80;1.90;;;;;;;11.77;82.81;98457.13;106415;1272;99411;-58
2023/07/26 03:25:22;;;;;;;3.90;1.30;;;;;;;11.79;82.87;98455.62;106468;1273;22530;-60
2023/07/26 03:27:51;;;;;;;10.90;2.10;;;;;;;11.80;82.95;98454.97;106536;1273;25680;-58
2023/07/26 03:30:21;;;;;;;3.90;1.40;;;;;;;11.82;83.12;98458.13;106489;1273;25452;-59
2023/07/26 03:32:50;;;;;;;2.90;1.20;;;;;;;11.84;83.24;98456.60;106614;1261;24075;-57
2023/07/26 03:35:19;;;;;;;1.80;0.80;;;;;;;11.86;83.21;98459.98;106472;1271;99169;-58
2023/07/26 03:37:48;;;;;;;8.30;1.70;;;;;;;11.87;83.25;98464.29;106476;1272;22612;-58
2023/07/26 03:40:17;;;;;;;14.10;2.50;;;;;;;11.90;83.30;98468.83;106470;1273;99298;-58
2023/07/26 03:42:46;;;;;;;12.20;1.70;;;;;;;11.92;83.27;98472.13;106574;1273;25386;-56
2023/07/26 03:45:15;;;;;;;6.00;1.30;;;;;;;11.96;83.45;98474.81;106490;1273;25381;-57
2023/07/26 03:47:44;;;;;;;3.90;1.30;;;;;;;12.00;83.54;98475.20;106567;1273;100141;-56
2023/07/26 03:50:14;;;;;;;3.20;1.40;;;;;;;12.04;83.56;98474.02;106562;1273;25576;-58
2023/07/26 03:52:42;;;;;;;2.90;1.20;;;;;;;12.07;83.65;98475.88;106440;1265;99152;-58
2023/07/26 03:55:12;;;;;;;3.70;1.20;;;;;;;12.10;83.62;98483.56;106549;1273;22524;-60
2023/07/26 03:57:40;;;;;;;2.60;1.10;;;;;;;12.13;83.83;98485.23;106564;1272;22533;-58
2023/07/26 04:00:10;;;;;;;2.30;1.00;;;;;;;12.17;83.99;98482.68;106536;1273;99232;-59
2023/07/26 04:02:39;;;;;;;2.80;1.00;;;;;;;12.24;84.17;98485.10;106585;1272;22524;-57
2023/07/26 04:05:09;;;;;;;6.10;1.20;;;;;;;12.35;84.35;98485.75;106512;1273;99599;-58
2023/07/26 04:07:40;;;;;;;9.90;1.40;;;;;;;12.46;84.50;98485.92;106663;1273;26803;-58
2023/07/26 04:10:09;;;;;;;8.00;1.50;;;;;;;12.59;84.59;98492.11;106436;1273;99299;-58
2023/07/26 04:12:39;;;;;;;6.10;1.30;;;;;;;12.70;84.62;98492.50;106512;1273;25374;-57
2023/07/26 04:15:09;;;;;;;5.90;1.20;;;;;;;12.82;84.70;98496.48;106554;1273;22649;-58
2023/07/26 04:17:38;;;;;;;2.60;1.20;;;;;;;12.98;84.83;98500.86;106353;1273;99695;-60
2023/07/26 04:20:08;;;;;;;2.10;0.90;;;;;;;13.17;84.95;98503.98;106450;1273;25398;-60
2023/07/26 04:22:37;;;;;;;5.80;1.30;;;;;;;13.36;85.05;98507.71;106388;1274;99269;-56
2023/07/26 04:25:07;;;;;;;2.10;1.00;;;;;;;13.57;85.22;98504.66;106529;1268;25313;-58
2023/07/26 04:27:36;;;;;;;4.10;1.10;;;;;;;13.78;85.02;98505.14;106510;1272;22532;-58
2023/07/26 04:30:06;;;;;;;1.90;1.00;;;;;;;13.94;84.82;98505.08;106434;1276;99169;-58
2023/07/26 04:32:35;;;;;;;2.20;1.00;;;;;;;14.07;84.72;98506.69;106511;1274;22526;-58
2023/07/26 04:35:05;;;;;;;3.90;1.00;;;;;;;14.20;84.82;98509.48;106414;1273;99277;-58
2023/07/26 04:37:34;;;;;;;6.20;1.00;;;;;;;14.30;84.71;98509.15;106506;1275;22582;-57
2023/07/26 04:40:04;;;;;;;2.80;1.10;;;;;;;14.41;84.60;98510.85;106389;1278;99329;-56
2023/07/26 04:42:34;;;;;;;3.10;1.10;;;;;;;14.50;84.49;98514.13;106551;1276;25359;-59
2023/07/26 04:45:06;;;;;;;3.00;1.20;;;;;;;14.53;84.30;98525.17;106504;1272;22759;-57
2023/07/26 04:47:35;;;;;;;1.30;0.80;;;;;;;14.48;84.31;98530.13;106486;1272;99191;-58
2023/07/26 04:50:05;;;;;;;2.90;1.00;;;;;;;14.43;84.59;98528.91;106847;1273;22526;-57
2023/07/26 04:52:37;;;;;;;3.70;1.00;;;;;;;14.36;84.61;98540.67;106416;1273;99320;-58
2023/07/26 04:55:07;;;;;;;2.80;1.10;;;;;;;14.27;84.61;98545.85;106535;1274;22776;-57
2023/07/26 04:57:39;;;;;;;3.70;1.20;;;;;;;14.17;84.47;98550.65;106631;1273;24257;-59
2023/07/26 05:00:08;;;;;;;2.40;1.40;;;;;;;14.04;84.48;98554.83;106513;1279;99168;-60
2023/07/26 05:02:37;;;;;;;1.90;1.10;;;;;;;13.89;84.63;98552.73;106576;1272;22892;-58
2023/07/26 05:05:12;;;;;;;5.60;2.30;;;;;;;13.74;84.94;98554.48;106428;1272;99195;-57
2023/07/26 05:07:41;;;;;;;3.70;0.90;;;;;;;13.68;84.99;98561.70;106520;1257;23923;-58
2023/07/26 05:10:10;;;;;;;1.50;1.10;;;;;;;13.59;85.46;98565.55;106311;1272;252992;-58
2023/07/26 05:12:48;;;;;;;4.50;1.20;;;;;;;13.56;85.64;98565.11;106538;1273;24462;-57
2023/07/26 05:15:17;;;;;;;3.10;1.20;;;;;;;13.54;85.71;98562.10;106508;1273;25251;-60
2023/07/26 05:17:46;;;;;;;2.90;1.30;;;;;;;13.52;85.66;98567.88;106488;1274;99159;-59
2023/07/26 05:20:16;;;;;;;3.20;1.40;;;;;;;13.52;85.90;98570.30;106474;1266;22555;-58
2023/07/26 05:22:45;;;;;;;2.30;1.10;;;;;;;13.55;86.00;98571.11;106449;1272;99123;-58
2023/07/26 05:25:14;;;;;;;3.80;1.10;;;;;;;13.57;86.32;98568.02;106596;1273;25416;-58
2023/07/26 05:27:43;;;;;;;6.00;1.10;;;;;;;13.56;86.99;98568.23;106658;1272;24361;-57
2023/07/26 05:30:15;;;;;;;3.00;1.10;;;;;;;13.56;87.19;98571.41;106488;1257;99509;-58
2023/07/26 05:32:45;;;;;;;2.40;0.90;;;;;;;13.64;87.50;98570.56;106577;1272;22558;-57
2023/07/26 05:35:14;;;;;;;2.20;1.00;;;;;;;13.72;87.72;98569.27;106407;1273;99436;-57
2023/07/26 05:37:43;;;;;;;4.30;1.00;;;;;;;13.92;88.20;98568.43;106500;1273;23121;-58
2023/07/26 05:40:13;;;;;;;2.40;1.40;;;;;;;14.11;88.02;98569.70;106454;1273;99592;-57
2023/07/26 05:42:45;;;;;;;3.40;1.10;;;;;;;14.28;87.87;98571.45;106539;1272;22543;-58
2023/07/26 05:45:14;;;;;;;3.90;1.50;;;;;;;14.39;87.59;98570.03;106556;1274;24080;-58
2023/07/26 05:47:43;;;;;;;1.80;1.10;;;;;;;14.50;87.43;98570.36;106496;1272;99108;-57
2023/07/26 05:50:12;;;;;;;2.90;1.00;;;;;;;14.57;87.08;98571.10;106629;1262;22767;-61
2023/07/26 05:52:43;;;;;;;3.00;1.20;;;;;;;14.58;86.77;98577.48;106949;1262;99659;-59
2023/07/26 05:55:14;;;;;;;3.80;1.00;;;;;;;14.65;87.06;98577.95;106775;1272;22531;-58
2023/07/26 05:57:44;;;;;;;2.70;0.90;;;;;;;14.79;87.46;98583.42;106582;1274;22566;-57
2023/07/26 06:00:19;;;;;;;3.20;1.20;;;;;;;14.98;87.78;98586.07;106413;1273;99336;-56
2023/07/26 06:02:48;;;;;;;1.70;0.90;;;;;;;15.15;87.46;98587.98;106528;1273;22652;-57
2023/07/26 06:05:17;;;;;;;2.20;1.00;;;;;;;15.25;87.17;98586.09;106473;1276;99198;-57
2023/07/26 06:07:48;;;;;;;1.60;0.90;;;;;;;15.29;86.88;98582.23;106541;1273;24428;-59
2023/07/26 06:10:17;;;;;;;1.90;1.10;;;;;;;15.31;86.84;98585.02;106409;1273;99260;-59
2023/07/26 06:12:49;;;;;;;9.60;1.50;;;;;;;15.32;86.81;98582.32;106529;1273;22524;-58
2023/07/26 06:15:19;;;;;;;2.20;1.00;;;;;;;15.34;86.67;98584.98;106491;1274;23884;-58
2023/07/26 06:17:48;;;;;;;4.40;0.80;;;;;;;15.30;86.55;98585.30;106281;1273;99355;-57
2023/07/26 06:20:17;;;;;;;4.30;1.20;;;;;;;15.35;87.09;98579.83;106526;1273;22654;-58
2023/07/26 06:22:48;;;;;;;2.10;1.30;;;;;;;15.48;87.38;98588.82;106493;1273;99098;-58
2023/07/26 06:25:17;;;;;;;5.50;1.50;;;;;;;15.61;87.35;98591.42;106526;1273;22530;-59
2023/07/26 06:27:48;;;;;;;1.90;0.80;;;;;;;15.72;87.41;98595.21;106610;1273;22529;-59
2023/07/26 06:30:17;;;;;;;2.90;1.10;;;;;;;15.90;87.69;98595.93;106493;1264;98940;-58
2023/07/26 06:32:49;;;;;;;3.30;1.00;;;;;;;16.15;87.80;98594.10;106447;1274;25270;-57
2023/07/26 06:35:18;;;;;;;2.20;1.00;;;;;;;16.46;87.81;98598.06;106364;1273;99523;-58
2023/07/26 06:37:47;;;;;;;3.10;1.30;;;;;;;16.78;88.02;98598.41;106497;1273;24960;-58
2023/07/26 06:40:19;;;;;;;3.10;0.80;;;;;;;17.05;87.66;98599.91;106410;1273;99292;-58
2023/07/26 06:42:48;;;;;;;1.60;0.70;;;;;;;17.37;87.21;98602.30;106584;1274;24294;-59
2023/07/26 06:45:17;;;;;;;1.50;0.80;;;;;;;17.64;87.15;98596.60;106460;1272;22532;-58
2023/07/26 06:47:48;;;;;;;2.30;0.70;;;;;;;17.91;86.61;98595.40;106419;1273;99196;-60
2023/07/26 06:50:17;;;;;;;1.30;0.60;;;;;;;18.08;86.34;98596.98;106496;1273;25283;-59
2023/07/26 06:52:46;;;;;;;4.70;0.90;;;;;;;18.32;86.67;98602.98;106650;1273;99101;-58
2023/07/26 06:55:15;;;;;;;2.50;0.80;;;;;;;18.70;87.27;98600.13;106594;1273;22517;-59
2023/07/26 06:57:45;;;;;;;3.20;0.80;;;;;;;18.98;86.22;98602.21;106517;1273;22779;-58
2023/07/26 07:00:15;;;;;;;2.90;1.10;;;;;;;19.06;85.45;98601.85;106486;1273;98974;-59
2023/07/26 07:02:48;;;;;;;2.50;0.80;;;;;;;19.44;87.15;98600.35;106671;1272;22530;-58
2023/07/26 07:05:18;;;;;;;0.70;0.50;;;;;;;20.13;87.57;98597.59;106468;1272;99624;-60
2023/07/26 07:07:48;;;;;;;0.90;0.50;;;;;;;20.76;86.72;98596.42;106530;1273;22524;-57
2023/07/26 07:10:17;;;;;;;3.30;1.20;;;;;;;21.36;85.95;98593.34;106448;1272;99253;-57
2023/07/26 07:12:47;;;;;;;2.00;0.80;;;;;;;21.66;84.50;98593.75;106521;1274;22587;-56
2023/07/26 07:15:16;;;;;;;3.00;0.80;;;;;;;22.00;83.97;98592.64;106587;1274;22504;-57
2023/07/26 07:17:45;;;;;;;1.90;0.70;;;;;;;22.62;84.82;98599.03;106317;1273;99463;-58
2023/07/26 07:20:18;;;;;;;2.70;0.60;;;;;;;23.07;83.11;98600.98;106423;1273;24288;-58
2023/07/26 07:22:52;;;;;;;2.60;0.60;;;;;;;23.39;82.27;98602.27;106401;1274;99102;-58
2023/07/26 07:25:22;;;;;;;4.30;0.70;;;;;;;24.00;82.12;98600.92;106941;1273;25242;-60
2023/07/26 07:27:51;;;;;;;1.40;0.50;;;;;;;24.81;82.94;98592.75;106693;1272;22579;-57
2023/07/26 07:30:21;;;;;;;2.60;0.60;;;;;;;26.00;81.38;98591.39;106614;1263;26619;-57
2023/07/26 07:32:51;;;;;;;3.60;0.40;;;;;;;26.98;80.96;98590.67;106496;1273;22529;-55
2023/07/26 07:35:20;;;;;;;1.10;0.30;;;;;;;27.95;79.83;98597.35;106682;1273;99261;-58
2023/07/26 07:37:49;;;;;;;4.70;0.70;;;;;;;28.70;77.66;98601.99;106733;1272;22705;-58
2023/07/26 07:40:18;;;;;;;2.10;0.40;;;;;;;29.18;76.39;98602.43;106481;1279;99327;-58
2023/07/26 07:42:47;;;;;;;1.00;0.50;;;;;;;29.27;74.73;98607.13;106479;1274;22608;-58
2023/07/26 07:45:16;;;;;;;0.60;0.40;;;;;;;28.97;74.05;98611.85;106661;1273;23907;-58
2023/07/26 07:47:46;;;;;;;1.90;0.70;;;;;;;28.44;72.65;98608.98;106520;1272;99170;-57
2023/07/26 07:50:15;;;;;;;1.10;0.40;;;;;;;27.67;71.96;98612.41;106568;1273;22527;-58
2023/07/26 07:52:44;;;;;;;3.60;0.60;;;;;;;27.06;72.28;98616.14;106585;1272;99180;-60
2023/07/26 07:55:14;;;;;;;1.60;0.50;;;;;;;26.73;72.05;98619.29;106601;1274;25343;-58
2023/07/26 07:57:43;;;;;;;1.00;0.40;;;;;;;26.45;71.57;98623.11;107060;1274;23906;-59
2023/07/26 08:00:13;;;;;;;2.90;0.60;;;;;;;26.02;70.20;98625.55;106520;1276;99194;-57
2023/07/26 08:02:50;;;;;;;1.10;0.40;;;;;;;25.44;69.94;98623.30;107056;1274;22571;-57
2023/07/26 08:05:20;;;;;;;2.20;0.50;;;;;;;24.72;68.88;98626.21;106683;1273;99095;-59
2023/07/26 08:07:53;;;;;;;2.90;0.70;;;;;;;24.00;68.89;98628.57;106849;1273;23304;-57
2023/07/26 08:10:23;;;;;;;2.20;0.60;;;;;;;23.31;68.31;98632.02;106740;1272;99414;-57
2023/07/26 08:12:53;;;;;;;0.70;0.50;;;;;;;22.77;68.79;98634.91;106659;1272;22524;-57
2023/07/26 08:15:27;;;;;;;3.20;0.60;;;;;;;23.30;71.36;98627.50;106537;1275;22518;-57
2023/07/26 08:17:56;;;;;;;1.80;0.60;;;;;;;24.28;69.19;98634.61;107153;1268;99105;-57
2023/07/26 08:20:33;;;;;;;1.50;0.70;;;;;;;24.55;68.16;98637.41;106686;1273;22618;-57
2023/07/26 08:23:15;;;;;;;2.70;0.70;;;;;;;25.83;69.45;98637.11;106508;1274;99448;-58
2023/07/26 08:25:46;;;;;;;1.40;0.50;;;;;;;27.37;67.80;98631.11;106644;1267;24192;-57
2023/07/26 08:28:20;;;;;;;2.50;0.60;;;;;;;28.32;64.81;98630.35;106772;1274;99338;-58
2023/07/26 08:30:49;;;;;;;2.10;0.50;;;;;;;27.95;63.19;98629.36;106630;1273;24279;-58
2023/07/26 08:33:19;;;;;;;1.50;0.70;;;;;;;27.22;62.62;98632.73;107200;1274;22546;-58
2023/07/26 08:35:51;;;;;;;3.10;0.70;;;;;;;26.50;62.93;98638.41;106602;1274;99145;-57
2023/07/26 08:38:21;;;;;;;0.90;0.50;;;;;;;25.82;62.81;98642.52;107116;1272;24059;-59
2023/07/26 08:40:50;;;;;;;2.60;0.60;;;;;;;25.19;62.44;98643.56;106589;1269;99213;-57
2023/07/26 08:43:26;;;;;;;2.00;0.40;;;;;;;24.49;62.40;98644.39;106732;1273;24212;-58
2023/07/26 08:45:57;;;;;;;1.00;0.30;;;;;;;23.80;61.86;98640.13;106681;1274;22501;-57
2023/07/26 08:48:29;;;;;;;1.40;0.60;;;;;;;23.04;61.97;98642.45;106708;1272;22662;-58
2023/07/26 08:51:00;;;;;;;3.70;0.60;;;;;;;22.47;62.02;98653.21;106744;1274;22566;-59
2023/07/26 08:53:30;;;;;;;1.80;0.60;;;;;;;22.25;62.60;98658.88;106696;1273;99833;-58
2023/07/26 08:56:00;;;;;;;2.00;0.70;;;;;;;22.57;63.29;98664.14;107384;1274;24281;-59
2023/07/26 08:58:29;;;;;;;1.00;0.60;;;;;;;22.85;62.47;98665.86;106861;1274;99333;-58
2023/07/26 09:00:59;;;;;;;1.50;0.50;;;;;;;22.82;61.78;98664.29;106585;1274;23438;-57
2023/07/26 09:03:29;;;;;;;2.20;0.40;;;;;;;22.81;61.66;98664.02;106613;1277;22882;-58
2023/07/26 09:06:19;;;;;;;2.40;0.70;;;;;;;22.85;61.60;98660.20;106597;1273;99152;-58
2023/07/26 09:09:00;;;;;;;1.60;0.50;;;;;;;23.95;63.42;98662.29;106697;1267;22756;-60
2023/07/26 09:11:33;;;;;;;2.90;0.50;;;;;;;26.27;63.87;98655.55;106730;1273;99131;-58
2023/07/26 09:14:06;;;;;;;1.40;0.60;;;;;;;28.56;61.29;98647.79;106708;1274;23442;-60
2023/07/26 09:16:38;;;;;;;3.70;0.50;;;;;;;28.82;58.94;98651.24;106562;1273;99347;-60
2023/07/26 09:19:10;;;;;;;1.30;0.40;;;;;;;28.89;59.24;98659.92;106700;1270;22639;-58
2023/07/26 09:21:48;;;;;;;2.60;1.00;;;;;;;28.60;55.63;98661.51;106808;1274;24887;-58
2023/07/26 09:24:33;;;;;;;2.10;0.50;;;;;;;26.56;55.85;98678.73;106738;1273;24398;-58
2023/07/26 09:27:23;;;;;;;2.40;0.40;;;;;;;24.48;56.83;98695.48;106825;1271;23757;-59
2023/07/26 09:30:00;;;;;;;2.70;0.50;;;;;;;23.30;57.91;98705.67;106661;1273;99855;-59
2023/07/26 09:32:30;;;;;;;0.80;0.40;;;;;;;22.38;58.06;98712.20;107016;1268;22736;-59
2023/07/26 09:35:08;;;;;;;2.00;0.50;;;;;;;21.79;58.61;98718.26;106653;1273;99311;-59
2023/07/26 09:37:38;;;;;;;1.30;0.60;;;;;;;21.34;58.89;98716.73;106820;1274;25587;-57
2023/07/26 09:40:12;;;;;;;1.00;0.50;;;;;;;21.40;60.18;98710.38;106889;1273;99750;-57
2023/07/26 09:42:52;;;;;;;0.30;0.30;;;;;;;22.32;60.80;98706.84;106737;1274;25911;-58
2023/07/26 09:45:24;;;;;;;0.80;0.40;;;;;;;24.16;61.37;98700.89;106720;1273;22529;-57
2023/07/26 09:48:06;;;;;;;1.10;0.30;;;;;;;25.90;58.71;98698.95;106784;1274;99142;-59
2023/07/26 09:51:05;;;;;;;2.10;0.60;;;;;;;26.16;57.06;98704.73;106673;1274;22630;-58
2023/07/26 09:53:38;;;;;;;0.60;0.40;;;;;;;25.58;56.69;98704.40;106454;1273;99674;-58
2023/07/26 09:56:07;;;;;;;3.20;0.50;;;;;;;24.95;56.89;98703.28;106529;1272;22528;-58
2023/07/26 09:58:42;;;;;;;0.90;0.40;;;;;;;24.46;57.38;98699.52;106824;1272;99847;-59
2023/07/26 10:01:14;;;;;;;1.90;0.60;;;;;;;24.09;57.63;98701.16;106635;1274;22754;-56
2023/07/26 10:03:48;;;;;;;3.30;0.50;;;;;;;23.84;57.77;98704.64;106647;1273;22531;-58
2023/07/26 10:06:20;;;;;;;2.80;0.70;;;;;;;23.88;58.49;98699.37;106657;1273;99080;-60
2023/07/26 10:08:50;;;;;;;3.70;0.80;;;;;;;24.21;58.23;98710.77;107407;1273;25388;-59
2023/07/26 10:11:23;;;;;;;1.70;0.40;;;;;;;24.39;57.69;98709.69;106509;1272;99031;-59
2023/07/26 10:13:54;;;;;;;1.90;0.50;;;;;;;24.55;57.56;98703.03;106745;1272;22561;-60
2023/07/26 10:16:26;;;;;;;1.40;0.70;;;;;;;25.29;58.60;98707.88;106665;1271;99327;-59
2023/07/26 10:18:58;;;;;;;1.20;0.60;;;;;;;26.35;57.80;98701.58;106675;1272;22600;-60
2023/07/26 10:21:28;;;;;;;1.10;0.40;;;;;;;28.08;59.91;98701.53;106873;1271;22566;-59
2023/07/26 10:24:01;;;;;;;1.20;0.50;;;;;;;31.24;59.66;98695.75;106675;1267;99137;-61
2023/07/26 10:26:34;;;;;;;1.40;0.40;;;;;;;33.15;55.94;98701.89;106810;1274;22749;-59
2023/07/26 10:29:04;;;;;;;1.00;0.30;;;;;;;34.10;56.19;98707.56;106787;1272;99116;-60
2023/07/26 10:31:34;;;;;;;3.20;0.50;;;;;;;35.67;54.80;98703.77;106850;1274;25457;-59
2023/07/26 10:34:04;;;;;;;2.20;0.40;;;;;;;35.99;52.61;98701.51;106858;1274;99395;-61
2023/07/26 10:36:39;;;;;;;1.50;0.50;;;;;;;35.58;52.28;98704.92;106818;1272;23025;-59
2023/07/26 10:39:12;;;;;;;1.50;0.50;;;;;;;35.65;51.98;98706.27;107024;1272;25230;-57
2023/07/26 10:41:50;;;;;;;3.10;0.50;;;;;;;35.23;49.90;98708.13;107086;1270;99626;-56
2023/07/26 10:44:20;;;;;;;1.20;0.70;;;;;;;33.85;49.31;98710.77;106842;1275;22529;-60
2023/07/26 10:47:00;;;;;;;2.50;0.40;;;;;;;34.16;51.58;98706.60;106753;1270;99776;-59
2023/07/26 10:49:32;;;;;;;2.10;0.30;;;;;;;36.38;51.14;98699.23;106744;1274;22543;-59
2023/07/26 10:52:04;;;;;;;3.30;0.40;;;;;;;37.81;48.48;98698.79;106721;1274;99326;-60
2023/07/26 10:54:43;;;;;;;2.60;0.50;;;;;;;37.65;45.33;98705.92;106663;1274;22668;-59
2023/07/26 10:57:21;;;;;;;1.00;0.40;;;;;;;36.89;44.22;98704.12;106998;1272;25218;-60
2023/07/26 10:59:58;;;;;;;2.20;0.60;;;;;;;35.72;42.95;98701.14;106731;1275;99270;-59
2023/07/26 11:02:45;;;;;;;0.70;0.30;;;;;;;34.24;42.82;98703.42;106783;1273;23030;-58
2023/07/26 11:05:21;;;;;;;0.70;0.30;;;;;;;34.33;43.97;98699.33;106656;1274;99511;-58
2023/07/26 11:08:00;;;;;;;1.20;0.40;;;;;;;34.38;40.97;98699.23;108585;1272;22533;-59
2023/07/26 11:10:36;;;;;;;1.00;0.50;;;;;;;33.99;41.24;98697.35;106590;1272;99284;-60
2023/07/26 11:13:13;;;;;;;1.40;0.40;;;;;;;34.08;41.17;98696.81;106828;1273;25512;-59
2023/07/26 11:15:50;;;;;;;1.20;0.30;;;;;;;34.85;40.89;98695.45;106954;1275;22750;-59
2023/07/26 11:18:41;;;;;;;1.10;0.50;;;;;;;35.66;39.38;98697.42;107264;1274;22530;-61
2023/07/26 11:21:15;;;;;;;0.80;0.40;;;;;;;35.83;37.27;98693.04;106610;1274;23396;-59
2023/07/26 11:23:45;;;;;;;2.50;0.50;;;;;;;35.78;36.91;98698.27;106992;1274;99396;-59
2023/07/26 11:26:15;;;;;;;1.30;0.50;;;;;;;34.96;36.81;98706.30;106775;1274;25437;-58
2023/07/26 11:28:47;;;;;;;1.90;0.50;;;;;;;33.87;36.47;98712.39;106897;1272;99307;-58
2023/07/26 11:31:20;;;;;;;2.10;0.50;;;;;;;32.61;36.29;98714.11;106844;1273;22535;-58
2023/07/26 11:33:51;;;;;;;1.20;0.60;;;;;;;32.10;37.03;98715.85;106810;1272;22585;-58
2023/07/26 11:36:24;;;;;;;0.70;0.30;;;;;;;32.19;36.29;98717.99;106699;1273;100130;-57
2023/07/26 11:38:54;;;;;;;2.10;0.60;;;;;;;31.40;35.56;98724.38;106820;1270;24246;-57
2023/07/26 11:41:24;;;;;;;1.90;0.70;;;;;;;30.46;35.55;98724.91;106693;1273;99111;-57